ARG0688 SABE-SAZS
Flight info
| Callsign | ARG0688 |
|---|---|
| Flight time | N/A |
| Altitude | 34000 |
| Route | PAL9 TORUL UT654 ORERA |
| Aircraft | MD83/M-SDFGIRWY/C |
Departure
| Time | 2026-05-05 15:10 |
|---|---|
| Airport | Aeroparque Jorge Newbery (SABE) |
Arrival
| Time | N/A |
|---|---|
| Airport | Teniente Luis Candelaria International Airport (SAZS) |
| Time | Latitude | Longitude | Altitude | Speed | Heading |
|---|---|---|---|---|---|
| 2026-05-05 14:48 | -34.55999 | -58.41095 | 28 ft | 0 kts | 183° |
| 2026-05-05 14:58 | -34.55996 | -58.41095 | 28 ft | 1 kts | 185° |
| 2026-05-05 14:58 | -34.55987 | -58.41093 | 28 ft | 2 kts | 207° |
| 2026-05-05 14:58 | -34.55982 | -58.41090 | 28 ft | 2 kts | 238° |
| 2026-05-05 14:59 | -34.55980 | -58.41088 | 28 ft | 2 kts | 273° |
| 2026-05-05 14:59 | -34.55982 | -58.41077 | 28 ft | 2 kts | 294° |
| 2026-05-05 14:59 | -34.55987 | -58.41065 | 28 ft | 2 kts | 303° |
| 2026-05-05 14:59 | -34.55994 | -58.41053 | 28 ft | 2 kts | 311° |
| 2026-05-05 15:00 | -34.56002 | -58.41043 | 28 ft | 1 kts | 319° |
| 2026-05-05 15:00 | -34.56003 | -58.41042 | 28 ft | 0 kts | 319° |
| 2026-05-05 15:02 | -34.56003 | -58.41043 | 28 ft | 0 kts | 319° |
| 2026-05-05 15:03 | -34.55990 | -58.41056 | 28 ft | 8 kts | 319° |
| 2026-05-05 15:03 | -34.55937 | -58.41136 | 28 ft | 17 kts | 308° |
| 2026-05-05 15:03 | -34.55868 | -58.41257 | 28 ft | 21 kts | 303° |
| 2026-05-05 15:04 | -34.55783 | -58.41417 | 28 ft | 18 kts | 301° |
| 2026-05-05 15:04 | -34.55769 | -58.41564 | 28 ft | 19 kts | 235° |
| 2026-05-05 15:04 | -34.55773 | -58.41672 | 28 ft | 14 kts | 297° |
| 2026-05-05 15:04 | -34.55714 | -58.41789 | 28 ft | 18 kts | 304° |
| 2026-05-05 15:05 | -34.55626 | -58.41949 | 28 ft | 14 kts | 305° |
| 2026-05-05 15:05 | -34.55565 | -58.42050 | 28 ft | 16 kts | 307° |
| 2026-05-05 15:05 | -34.55493 | -58.42165 | 28 ft | 18 kts | 307° |
| 2026-05-05 15:06 | -34.55425 | -58.42278 | 28 ft | 11 kts | 306° |
| 2026-05-05 15:06 | -34.55412 | -58.42303 | 28 ft | 0 kts | 297° |
| 2026-05-05 15:08 | -34.55403 | -58.42325 | 28 ft | 8 kts | 290° |
| 2026-05-05 15:08 | -34.55398 | -58.42409 | 28 ft | 10 kts | 257° |
| 2026-05-05 15:08 | -34.55449 | -58.42429 | 28 ft | 11 kts | 128° |
| 2026-05-05 15:09 | -34.55454 | -58.42421 | 28 ft | 1 kts | 126° |
| 2026-05-05 15:09 | -34.55501 | -58.42340 | 28 ft | 41 kts | 124° |
| 2026-05-05 15:09 | -34.55807 | -58.41785 | 28 ft | 116 kts | 123° |
| 2026-05-05 15:09 | -34.56377 | -58.40754 | 59 ft | 172 kts | 123° |
| 2026-05-05 15:10 | -34.56844 | -58.39929 | 372 ft | 183 kts | 124° |
| 2026-05-05 15:10 | -34.57564 | -58.38698 | 1407 ft | 171 kts | 124° |
| 2026-05-05 15:10 | -34.58063 | -58.37377 | 2123 ft | 183 kts | 103° |
| 2026-05-05 15:10 | -34.57863 | -58.35270 | 2530 ft | 201 kts | 66° |
| 2026-05-05 15:11 | -34.57260 | -58.33709 | 2995 ft | 208 kts | 60° |
| 2026-05-05 15:11 | -34.56807 | -58.32646 | 3327 ft | 213 kts | 59° |
| 2026-05-05 15:11 | -34.56092 | -58.31001 | 3707 ft | 229 kts | 59° |
| 2026-05-05 15:11 | -34.55339 | -58.29251 | 4076 ft | 245 kts | 59° |
| 2026-05-05 15:12 | -34.54543 | -58.27357 | 4508 ft | 259 kts | 60° |
| 2026-05-05 15:12 | -34.53712 | -58.25360 | 4970 ft | 270 kts | 58° |
| 2026-05-05 15:12 | -34.52455 | -58.23694 | 5477 ft | 269 kts | 31° |
| 2026-05-05 15:12 | -34.50730 | -58.22885 | 6051 ft | 266 kts | 4° |
| 2026-05-05 15:13 | -34.48375 | -58.23398 | 6883 ft | 259 kts | 329° |
| 2026-05-05 15:13 | -34.47433 | -58.24266 | 7276 ft | 259 kts | 313° |
| 2026-05-05 15:13 | -34.46541 | -58.26143 | 7892 ft | 260 kts | 287° |
| 2026-05-05 15:13 | -34.46403 | -58.28344 | 8452 ft | 266 kts | 266° |
| 2026-05-05 15:14 | -34.46817 | -58.30542 | 9075 ft | 270 kts | 254° |
| 2026-05-05 15:14 | -34.47542 | -58.32654 | 9669 ft | 275 kts | 247° |
| 2026-05-05 15:14 | -34.48439 | -58.34729 | 10219 ft | 281 kts | 244° |
| 2026-05-05 15:14 | -34.49428 | -58.36815 | 10479 ft | 298 kts | 243° |
| 2026-05-05 15:15 | -34.50511 | -58.39032 | 10797 ft | 311 kts | 242° |
| 2026-05-05 15:15 | -34.51624 | -58.41281 | 11478 ft | 311 kts | 242° |
| 2026-05-05 15:15 | -34.52740 | -58.43538 | 12103 ft | 313 kts | 243° |
| 2026-05-05 15:15 | -34.53858 | -58.45828 | 12734 ft | 315 kts | 243° |
| 2026-05-05 15:16 | -34.54967 | -58.48121 | 13344 ft | 316 kts | 243° |
| 2026-05-05 15:16 | -34.56067 | -58.50440 | 13949 ft | 318 kts | 244° |
| 2026-05-05 15:16 | -34.57166 | -58.52776 | 14560 ft | 319 kts | 244° |
| 2026-05-05 15:16 | -34.58268 | -58.55121 | 15116 ft | 321 kts | 244° |
| 2026-05-05 15:17 | -34.59379 | -58.57483 | 15663 ft | 323 kts | 244° |
| 2026-05-05 15:17 | -34.60500 | -58.59855 | 16233 ft | 325 kts | 243° |
| 2026-05-05 15:17 | -34.61864 | -58.62092 | 16744 ft | 333 kts | 234° |
| 2026-05-05 15:17 | -34.63466 | -58.64144 | 17269 ft | 337 kts | 229° |
| 2026-05-05 15:18 | -34.65205 | -58.66090 | 17787 ft | 341 kts | 227° |
| 2026-05-05 15:18 | -34.66998 | -58.67958 | 18275 ft | 344 kts | 226° |
| 2026-05-05 15:18 | -34.68843 | -58.69844 | 18766 ft | 347 kts | 226° |
| 2026-05-05 15:18 | -34.70690 | -58.71744 | 19255 ft | 348 kts | 226° |
| 2026-05-05 15:19 | -34.72529 | -58.73670 | 19750 ft | 350 kts | 227° |
| 2026-05-05 15:19 | -34.74363 | -58.75627 | 20220 ft | 351 kts | 227° |
| 2026-05-05 15:19 | -34.76188 | -58.77616 | 20619 ft | 355 kts | 228° |
| 2026-05-05 15:19 | -34.78026 | -58.79647 | 21059 ft | 357 kts | 228° |
| 2026-05-05 15:20 | -34.79853 | -58.81676 | 21614 ft | 356 kts | 228° |
| 2026-05-05 15:20 | -34.81708 | -58.83710 | 22017 ft | 359 kts | 228° |
| 2026-05-05 15:20 | -34.83540 | -58.85723 | 22456 ft | 360 kts | 228° |
| 2026-05-05 15:20 | -34.85426 | -58.87803 | 22865 ft | 362 kts | 228° |
| 2026-05-05 15:21 | -34.87299 | -58.89867 | 23256 ft | 364 kts | 228° |
| 2026-05-05 15:21 | -34.89185 | -58.91935 | 23658 ft | 366 kts | 228° |
| 2026-05-05 15:21 | -34.91053 | -58.93999 | 24061 ft | 367 kts | 228° |
| 2026-05-05 15:21 | -34.92950 | -58.96090 | 24420 ft | 369 kts | 228° |
| 2026-05-05 15:22 | -34.94857 | -58.98188 | 24763 ft | 371 kts | 228° |
| 2026-05-05 15:22 | -34.96784 | -59.00292 | 25108 ft | 373 kts | 227° |
| 2026-05-05 15:22 | -34.98720 | -59.02403 | 25437 ft | 375 kts | 227° |
| 2026-05-05 15:22 | -35.00663 | -59.04540 | 25785 ft | 376 kts | 228° |
| 2026-05-05 15:23 | -35.02613 | -59.06688 | 26113 ft | 378 kts | 228° |
| 2026-05-05 15:23 | -35.04573 | -59.08848 | 26396 ft | 380 kts | 227° |
| 2026-05-05 15:23 | -35.06538 | -59.11015 | 26711 ft | 382 kts | 227° |
| 2026-05-05 15:23 | -35.08510 | -59.13195 | 26988 ft | 384 kts | 227° |
| 2026-05-05 15:24 | -35.10491 | -59.15391 | 27273 ft | 385 kts | 227° |
| 2026-05-05 15:24 | -35.12475 | -59.17598 | 27559 ft | 387 kts | 227° |
| 2026-05-05 15:24 | -35.14447 | -59.19799 | 27813 ft | 389 kts | 228° |
| 2026-05-05 15:24 | -35.16439 | -59.22030 | 28092 ft | 390 kts | 228° |
| 2026-05-05 15:25 | -35.18439 | -59.24276 | 28327 ft | 391 kts | 228° |
| 2026-05-05 15:25 | -35.20461 | -59.26531 | 28572 ft | 393 kts | 227° |
| 2026-05-05 15:25 | -35.22496 | -59.28777 | 28752 ft | 396 kts | 227° |
| 2026-05-05 15:25 | -35.24553 | -59.31041 | 28992 ft | 397 kts | 227° |
| 2026-05-05 15:26 | -35.26611 | -59.33303 | 29216 ft | 399 kts | 227° |
| 2026-05-05 15:26 | -35.28659 | -59.35574 | 29593 ft | 395 kts | 227° |
| 2026-05-05 15:26 | -35.30695 | -59.37858 | 29734 ft | 399 kts | 227° |
| 2026-05-05 15:26 | -35.32750 | -59.40153 | 29959 ft | 400 kts | 227° |
| 2026-05-05 15:27 | -35.34811 | -59.42447 | 30146 ft | 401 kts | 227° |
| 2026-05-05 15:27 | -35.36757 | -59.44892 | 30327 ft | 399 kts | 233° |
| 2026-05-05 15:27 | -35.38506 | -59.47525 | 30524 ft | 398 kts | 237° |
| 2026-05-05 15:27 | -35.40110 | -59.50240 | 30672 ft | 398 kts | 239° |
| 2026-05-05 15:28 | -35.41666 | -59.53054 | 30846 ft | 398 kts | 240° |
| 2026-05-05 15:28 | -35.43201 | -59.55902 | 31008 ft | 400 kts | 240° |
| 2026-05-05 15:28 | -35.44750 | -59.58746 | 31140 ft | 401 kts | 239° |
| 2026-05-05 15:28 | -35.46328 | -59.61568 | 31370 ft | 401 kts | 239° |
| 2026-05-05 15:29 | -35.47939 | -59.64363 | 31490 ft | 403 kts | 238° |
| 2026-05-05 15:29 | -35.49580 | -59.67159 | 31640 ft | 403 kts | 238° |
| 2026-05-05 15:29 | -35.51231 | -59.69947 | 31793 ft | 404 kts | 238° |
| 2026-05-05 15:29 | -35.52893 | -59.72745 | 31904 ft | 405 kts | 237° |
| 2026-05-05 15:30 | -35.54534 | -59.75503 | 32048 ft | 405 kts | 237° |
| 2026-05-05 15:30 | -35.56195 | -59.78309 | 32163 ft | 406 kts | 238° |
| 2026-05-05 15:30 | -35.57847 | -59.81144 | 32197 ft | 409 kts | 238° |
| 2026-05-05 15:31 | -35.61142 | -59.86858 | 32427 ft | 410 kts | 238° |
| 2026-05-05 15:31 | -35.64471 | -59.92574 | 32636 ft | 411 kts | 238° |
| 2026-05-05 15:31 | -35.66128 | -59.95439 | 32743 ft | 412 kts | 238° |
| 2026-05-05 15:32 | -35.67791 | -59.98312 | 32828 ft | 413 kts | 238° |
| 2026-05-05 15:32 | -35.69457 | -60.01183 | 32939 ft | 413 kts | 238° |
| 2026-05-05 15:32 | -35.71119 | -60.04068 | 33038 ft | 413 kts | 238° |
| 2026-05-05 15:33 | -35.74457 | -60.09846 | 33204 ft | 414 kts | 238° |
| 2026-05-05 15:33 | -35.77789 | -60.15617 | 33485 ft | 411 kts | 238° |
| 2026-05-05 15:33 | -35.79436 | -60.18454 | 33859 ft | 404 kts | 238° |
| 2026-05-05 15:34 | -35.81050 | -60.21261 | 33971 ft | 397 kts | 239° |
| 2026-05-05 15:34 | -35.84177 | -60.26734 | 33987 ft | 387 kts | 239° |
| 2026-05-05 15:35 | -35.87287 | -60.32153 | 33987 ft | 388 kts | 239° |
| 2026-05-05 15:35 | -35.90383 | -60.37571 | 33987 ft | 389 kts | 239° |
| 2026-05-05 15:36 | -35.93501 | -60.43031 | 33987 ft | 389 kts | 239° |
| 2026-05-05 15:36 | -35.96614 | -60.48490 | 33987 ft | 388 kts | 239° |
| 2026-05-05 15:37 | -35.99721 | -60.53945 | 33987 ft | 388 kts | 239° |
| 2026-05-05 15:37 | -36.02828 | -60.59404 | 33987 ft | 388 kts | 239° |
| 2026-05-05 15:38 | -36.05927 | -60.64858 | 33987 ft | 388 kts | 239° |
| 2026-05-05 15:38 | -36.09028 | -60.70322 | 33987 ft | 388 kts | 239° |
| 2026-05-05 15:39 | -36.12125 | -60.75810 | 33987 ft | 388 kts | 239° |
| 2026-05-05 15:39 | -36.15191 | -60.81308 | 33987 ft | 388 kts | 240° |
| 2026-05-05 15:40 | -36.18225 | -60.86776 | 33987 ft | 388 kts | 240° |
| 2026-05-05 15:40 | -36.21281 | -60.92290 | 33987 ft | 388 kts | 240° |
| 2026-05-05 15:41 | -36.24365 | -60.97790 | 33987 ft | 388 kts | 239° |
| 2026-05-05 15:41 | -36.27443 | -61.03287 | 33988 ft | 387 kts | 239° |
| 2026-05-05 15:42 | -36.30507 | -61.08723 | 33987 ft | 383 kts | 239° |
| 2026-05-05 15:42 | -36.33532 | -61.14160 | 33987 ft | 383 kts | 239° |
| 2026-05-05 15:43 | -36.36544 | -61.19572 | 33987 ft | 384 kts | 239° |
| 2026-05-05 15:43 | -36.39563 | -61.25055 | 33987 ft | 384 kts | 240° |
| 2026-05-05 15:44 | -36.42562 | -61.30543 | 33987 ft | 384 kts | 240° |
| 2026-05-05 15:44 | -36.45583 | -61.36017 | 33987 ft | 384 kts | 240° |
| 2026-05-05 15:45 | -36.48607 | -61.41495 | 33987 ft | 384 kts | 240° |
| 2026-05-05 15:45 | -36.51611 | -61.46943 | 33987 ft | 384 kts | 240° |
| 2026-05-05 15:46 | -36.54635 | -61.52435 | 33987 ft | 384 kts | 240° |
| 2026-05-05 15:46 | -36.57649 | -61.57919 | 33987 ft | 384 kts | 240° |
| 2026-05-05 15:47 | -36.60661 | -61.63405 | 33987 ft | 384 kts | 240° |
| 2026-05-05 15:47 | -36.63664 | -61.68905 | 33987 ft | 384 kts | 240° |
| 2026-05-05 15:48 | -36.66647 | -61.74377 | 33987 ft | 384 kts | 240° |
| 2026-05-05 15:48 | -36.69644 | -61.79880 | 33987 ft | 384 kts | 240° |
| 2026-05-05 15:49 | -36.72635 | -61.85408 | 33987 ft | 384 kts | 240° |
| 2026-05-05 15:49 | -36.75643 | -61.90937 | 33987 ft | 385 kts | 240° |
| 2026-05-05 15:50 | -36.78636 | -61.96453 | 33987 ft | 383 kts | 241° |
| 2026-05-05 15:50 | -36.81617 | -62.01965 | 33987 ft | 383 kts | 241° |
| 2026-05-05 15:51 | -36.84590 | -62.07480 | 33987 ft | 383 kts | 241° |
| 2026-05-05 15:51 | -36.87546 | -62.12982 | 33987 ft | 383 kts | 241° |
| 2026-05-05 15:52 | -36.90522 | -62.18507 | 33987 ft | 383 kts | 241° |
| 2026-05-05 15:52 | -36.93498 | -62.24036 | 33987 ft | 383 kts | 241° |
| 2026-05-05 15:53 | -36.95963 | -62.28634 | 33987 ft | 383 kts | 241° |
| 2026-05-05 15:53 | -36.98931 | -62.34168 | 33987 ft | 383 kts | 241° |
| 2026-05-05 15:54 | -37.01902 | -62.39704 | 33987 ft | 383 kts | 241° |
| 2026-05-05 15:54 | -37.04855 | -62.45221 | 33987 ft | 383 kts | 241° |
| 2026-05-05 15:55 | -37.07817 | -62.50759 | 33987 ft | 383 kts | 241° |
| 2026-05-05 15:55 | -37.10771 | -62.56310 | 33987 ft | 383 kts | 242° |
| 2026-05-05 15:56 | -37.13726 | -62.61873 | 33987 ft | 383 kts | 242° |
| 2026-05-05 15:56 | -37.16676 | -62.67433 | 33987 ft | 383 kts | 242° |
| 2026-05-05 15:57 | -37.19626 | -62.72997 | 33987 ft | 383 kts | 242° |
| 2026-05-05 15:57 | -37.22571 | -62.78556 | 33989 ft | 383 kts | 242° |
| 2026-05-05 15:58 | -37.25523 | -62.84138 | 33991 ft | 383 kts | 242° |
| 2026-05-05 15:58 | -37.28465 | -62.89710 | 33990 ft | 381 kts | 242° |
| 2026-05-05 15:59 | -37.31375 | -62.95232 | 33990 ft | 381 kts | 242° |
| 2026-05-05 15:59 | -37.34302 | -63.00804 | 33990 ft | 382 kts | 242° |
| 2026-05-05 16:00 | -37.37189 | -63.06392 | 33992 ft | 381 kts | 243° |
| 2026-05-05 16:00 | -37.40094 | -63.11991 | 33993 ft | 382 kts | 243° |
| 2026-05-05 16:01 | -37.43027 | -63.17566 | 33993 ft | 382 kts | 242° |
| 2026-05-05 16:01 | -37.45960 | -63.23138 | 33991 ft | 382 kts | 242° |
| 2026-05-05 16:02 | -37.48885 | -63.28711 | 33991 ft | 381 kts | 243° |
| 2026-05-05 16:02 | -37.51811 | -63.34305 | 33994 ft | 382 kts | 242° |
| 2026-05-05 16:03 | -37.54738 | -63.39891 | 33995 ft | 382 kts | 243° |
| 2026-05-05 16:03 | -37.57660 | -63.45479 | 33995 ft | 382 kts | 243° |
| 2026-05-05 16:04 | -37.60558 | -63.51044 | 33995 ft | 382 kts | 243° |
| 2026-05-05 16:04 | -37.63464 | -63.56653 | 33998 ft | 382 kts | 243° |
| 2026-05-05 16:05 | -37.66373 | -63.62268 | 34000 ft | 382 kts | 243° |
| 2026-05-05 16:05 | -37.69284 | -63.67895 | 34002 ft | 382 kts | 243° |
| 2026-05-05 16:06 | -37.72191 | -63.73521 | 34004 ft | 382 kts | 243° |
| 2026-05-05 16:06 | -37.75091 | -63.79139 | 34006 ft | 382 kts | 243° |
| 2026-05-05 16:07 | -37.77991 | -63.84759 | 34007 ft | 380 kts | 243° |
| 2026-05-05 16:07 | -37.80850 | -63.90344 | 34006 ft | 378 kts | 243° |
| 2026-05-05 16:08 | -37.83708 | -63.95926 | 34006 ft | 378 kts | 243° |
| 2026-05-05 16:08 | -37.86551 | -64.01486 | 34008 ft | 379 kts | 243° |
| 2026-05-05 16:09 | -37.89415 | -64.07095 | 34009 ft | 379 kts | 243° |
| 2026-05-05 16:09 | -37.92272 | -64.12697 | 34009 ft | 379 kts | 243° |
| 2026-05-05 16:10 | -37.95129 | -64.18304 | 34009 ft | 379 kts | 243° |
| 2026-05-05 16:10 | -37.97981 | -64.23908 | 34010 ft | 379 kts | 243° |
| 2026-05-05 16:11 | -38.00840 | -64.29532 | 34010 ft | 379 kts | 243° |
| 2026-05-05 16:12 | -38.06531 | -64.40852 | 34011 ft | 382 kts | 244° |
| 2026-05-05 16:13 | -38.13634 | -64.55038 | 34011 ft | 381 kts | 243° |
| 2026-05-05 16:13 | -38.16489 | -64.60715 | 34013 ft | 381 kts | 243° |
| 2026-05-05 16:14 | -38.22195 | -64.72069 | 34013 ft | 381 kts | 243° |
| 2026-05-05 16:15 | -38.27846 | -64.83424 | 34014 ft | 381 kts | 244° |
| 2026-05-05 16:16 | -38.33495 | -64.94771 | 34015 ft | 378 kts | 244° |
| 2026-05-05 16:17 | -38.37692 | -65.03256 | 34016 ft | 379 kts | 244° |
| 2026-05-05 16:18 | -38.41901 | -65.11776 | 34016 ft | 378 kts | 244° |
| 2026-05-05 16:19 | -38.46106 | -65.20309 | 34017 ft | 378 kts | 244° |
| 2026-05-05 16:19 | -38.50306 | -65.28841 | 34017 ft | 378 kts | 244° |
| 2026-05-05 16:20 | -38.55848 | -65.40206 | 34017 ft | 377 kts | 245° |
| 2026-05-05 16:22 | -38.62797 | -65.54456 | 34017 ft | 377 kts | 245° |
| 2026-05-05 16:23 | -38.68344 | -65.65860 | 34017 ft | 377 kts | 245° |
| 2026-05-05 16:23 | -38.72497 | -65.74416 | 34017 ft | 377 kts | 245° |
| 2026-05-05 16:24 | -38.75259 | -65.80131 | 34017 ft | 378 kts | 245° |
| 2026-05-05 16:25 | -38.79329 | -65.88642 | 34016 ft | 371 kts | 246° |
| 2026-05-05 16:25 | -38.83366 | -65.97140 | 34017 ft | 373 kts | 245° |
| 2026-05-05 16:26 | -38.88863 | -66.08434 | 34017 ft | 373 kts | 245° |
| 2026-05-05 16:27 | -38.91581 | -66.14105 | 34017 ft | 372 kts | 246° |
| 2026-05-05 16:27 | -38.94247 | -66.19802 | 34017 ft | 372 kts | 246° |
| 2026-05-05 16:28 | -38.96894 | -66.25468 | 34017 ft | 372 kts | 246° |
| 2026-05-05 16:28 | -38.99604 | -66.31153 | 34017 ft | 371 kts | 245° |
| 2026-05-05 16:29 | -39.02291 | -66.36794 | 33995 ft | 370 kts | 245° |
| 2026-05-05 16:29 | -39.04971 | -66.42450 | 33961 ft | 370 kts | 245° |
| 2026-05-05 16:30 | -39.07647 | -66.48114 | 33958 ft | 370 kts | 245° |
| 2026-05-05 16:30 | -39.10316 | -66.53787 | 33958 ft | 370 kts | 246° |
| 2026-05-05 16:31 | -39.12979 | -66.59465 | 33958 ft | 370 kts | 246° |
| 2026-05-05 16:31 | -39.15617 | -66.65110 | 33958 ft | 370 kts | 246° |
| 2026-05-05 16:32 | -39.18276 | -66.70797 | 33958 ft | 370 kts | 246° |
| 2026-05-05 16:32 | -39.20944 | -66.76488 | 33958 ft | 370 kts | 246° |
| 2026-05-05 16:33 | -39.23601 | -66.82170 | 33958 ft | 369 kts | 245° |
| 2026-05-05 16:33 | -39.26243 | -66.87805 | 33958 ft | 368 kts | 245° |
| 2026-05-05 16:34 | -39.28874 | -66.93465 | 33957 ft | 367 kts | 246° |
| 2026-05-05 16:34 | -39.31497 | -66.99107 | 33958 ft | 367 kts | 246° |
| 2026-05-05 16:35 | -39.34127 | -67.04768 | 33958 ft | 367 kts | 246° |
| 2026-05-05 16:35 | -39.36741 | -67.10438 | 33958 ft | 367 kts | 246° |
| 2026-05-05 16:36 | -39.38911 | -67.15149 | 33958 ft | 367 kts | 246° |
| 2026-05-05 16:36 | -39.41518 | -67.20817 | 33958 ft | 367 kts | 246° |
| 2026-05-05 16:37 | -39.44127 | -67.26492 | 33958 ft | 367 kts | 246° |
| 2026-05-05 16:37 | -39.47155 | -67.33093 | 33958 ft | 367 kts | 246° |
| 2026-05-05 16:38 | -39.49337 | -67.37850 | 33958 ft | 367 kts | 246° |
| 2026-05-05 16:38 | -39.51928 | -67.43503 | 33958 ft | 367 kts | 246° |
| 2026-05-05 16:39 | -39.54534 | -67.49196 | 33958 ft | 367 kts | 246° |
| 2026-05-05 16:39 | -39.57131 | -67.54896 | 33958 ft | 367 kts | 246° |
| 2026-05-05 16:40 | -39.59727 | -67.60615 | 33958 ft | 368 kts | 246° |
| 2026-05-05 16:40 | -39.62319 | -67.66331 | 33958 ft | 368 kts | 246° |
| 2026-05-05 16:41 | -39.64913 | -67.72059 | 33958 ft | 368 kts | 246° |
| 2026-05-05 16:41 | -39.67503 | -67.77787 | 33957 ft | 368 kts | 246° |
| 2026-05-05 16:42 | -39.70061 | -67.83507 | 33958 ft | 369 kts | 246° |
| 2026-05-05 16:42 | -39.72666 | -67.89263 | 33958 ft | 370 kts | 246° |
| 2026-05-05 16:43 | -39.75283 | -67.95028 | 33957 ft | 369 kts | 246° |
| 2026-05-05 16:43 | -39.77856 | -68.00800 | 33957 ft | 370 kts | 247° |
| 2026-05-05 16:44 | -39.80438 | -68.06628 | 33958 ft | 373 kts | 246° |
| 2026-05-05 16:44 | -39.83169 | -68.12401 | 33958 ft | 375 kts | 244° |
| 2026-05-05 16:45 | -39.86075 | -68.18052 | 33957 ft | 375 kts | 243° |
| 2026-05-05 16:45 | -39.87049 | -68.19910 | 33957 ft | 375 kts | 243° |
| 2026-05-05 16:46 | -39.95143 | -68.35672 | 33958 ft | 380 kts | 244° |